sensor_id;sensor_type;location;lat;lon;timestamp;pressure;altitude;pressure_sealevel;temperature;humidity
43741;BME280;29352;48.708;9.290;2022-10-19T00:01:46;98801.19;;;4.10;95.36
43741;BME280;29352;48.708;9.290;2022-10-19T00:04:12;98799.53;;;3.73;95.94
43741;BME280;29352;48.708;9.290;2022-10-19T00:06:38;98795.38;;;4.07;95.48
43741;BME280;29352;48.708;9.290;2022-10-19T00:11:41;98791.84;;;3.98;95.58
43741;BME280;29352;48.708;9.290;2022-10-19T00:14:13;98791.84;;;3.98;95.01
43741;BME280;29352;48.708;9.290;2022-10-19T00:16:43;98799.47;;;3.83;94.10
43741;BME280;29352;48.708;9.290;2022-10-19T00:19:14;98792.88;;;4.05;95.40
43741;BME280;29352;48.708;9.290;2022-10-19T00:21:42;98802.16;;;4.27;94.95
43741;BME280;29352;48.708;9.290;2022-10-19T00:24:08;98795.81;;;4.46;95.39
43741;BME280;29352;48.708;9.290;2022-10-19T00:26:34;98789.66;;;4.37;94.92
43741;BME280;29352;48.708;9.290;2022-10-19T00:29:00;98781.53;;;4.31;96.10
43741;BME280;29352;48.708;9.290;2022-10-19T00:31:26;98789.59;;;4.03;95.15
43741;BME280;29352;48.708;9.290;2022-10-19T00:33:52;98791.44;;;4.11;95.02
43741;BME280;29352;48.708;9.290;2022-10-19T00:36:23;98787.03;;;4.19;95.46
43741;BME280;29352;48.708;9.290;2022-10-19T00:38:51;98794.31;;;4.43;93.86
43741;BME280;29352;48.708;9.290;2022-10-19T00:41:19;98798.56;;;4.36;94.89
43741;BME280;29352;48.708;9.290;2022-10-19T00:46:37;98785.97;;;4.82;95.36
43741;BME280;29352;48.708;9.290;2022-10-19T00:49:24;98787.97;;;4.80;94.13
43741;BME280;29352;48.708;9.290;2022-10-19T00:51:56;98790.41;;;4.73;95.84
43741;BME280;29352;48.708;9.290;2022-10-19T00:54:31;98789.81;;;4.88;95.67
43741;BME280;29352;48.708;9.290;2022-10-19T00:56:59;98794.34;;;4.69;96.92
43741;BME280;29352;48.708;9.290;2022-10-19T00:59:27;98794.75;;;4.83;96.60
43741;BME280;29352;48.708;9.290;2022-10-19T01:01:56;98801.31;;;5.05;96.24
43741;BME280;29352;48.708;9.290;2022-10-19T01:04:25;98801.88;;;5.25;93.64
43741;BME280;29352;48.708;9.290;2022-10-19T01:06:53;98801.41;;;4.95;94.31
43741;BME280;29352;48.708;9.290;2022-10-19T01:09:20;98796.44;;;4.92;95.64
43741;BME280;29352;48.708;9.290;2022-10-19T01:12:10;98796.63;;;4.98;95.18
43741;BME280;29352;48.708;9.290;2022-10-19T01:18:05;98799.34;;;5.07;97.57
43741;BME280;29352;48.708;9.290;2022-10-19T01:24:25;98794.69;;;4.74;97.32
43741;BME280;29352;48.708;9.290;2022-10-19T01:30:11;98790.75;;;4.79;96.79
43741;BME280;29352;48.708;9.290;2022-10-19T01:38:35;98772.72;;;5.16;96.93
43741;BME280;29352;48.708;9.290;2022-10-19T01:41:10;98773.94;;;5.30;96.41
43741;BME280;29352;48.708;9.290;2022-10-19T01:43:56;98772.00;;;5.65;95.13
43741;BME280;29352;48.708;9.290;2022-10-19T01:46:38;98772.22;;;5.72;94.14
43741;BME280;29352;48.708;9.290;2022-10-19T01:51:58;98765.84;;;5.32;95.78
43741;BME280;29352;48.708;9.290;2022-10-19T01:54:36;98760.19;;;5.27;94.74
43741;BME280;29352;48.708;9.290;2022-10-19T01:57:10;98764.53;;;5.44;94.30
43741;BME280;29352;48.708;9.290;2022-10-19T01:59:42;98757.59;;;5.51;93.89
43741;BME280;29352;48.708;9.290;2022-10-19T02:02:11;98756.59;;;5.36;94.73
43741;BME280;29352;48.708;9.290;2022-10-19T02:04:40;98762.25;;;5.49;95.34
43741;BME280;29352;48.708;9.290;2022-10-19T02:07:07;98747.91;;;5.76;94.53
43741;BME280;29352;48.708;9.290;2022-10-19T02:09:35;98749.97;;;5.32;97.04
43741;BME280;29352;48.708;9.290;2022-10-19T02:12:05;98758.25;;;5.45;96.98
43741;BME280;29352;48.708;9.290;2022-10-19T02:14:42;98750.66;;;5.42;96.78
43741;BME280;29352;48.708;9.290;2022-10-19T02:17:15;98755.25;;;5.32;95.90
43741;BME280;29352;48.708;9.290;2022-10-19T02:19:49;98760.56;;;5.48;95.52
43741;BME280;29352;48.708;9.290;2022-10-19T02:22:16;98751.16;;;5.54;95.22
43741;BME280;29352;48.708;9.290;2022-10-19T02:24:42;98753.53;;;5.73;94.68
43741;BME280;29352;48.708;9.290;2022-10-19T02:27:08;98757.78;;;5.58;95.56
43741;BME280;29352;48.708;9.290;2022-10-19T02:29:36;98738.41;;;5.57;96.03
43741;BME280;29352;48.708;9.290;2022-10-19T02:32:03;98738.09;;;5.60;96.67
43741;BME280;29352;48.708;9.290;2022-10-19T02:34:30;98740.28;;;5.73;96.23
43741;BME280;29352;48.708;9.290;2022-10-19T02:36:56;98731.16;;;5.76;96.86
43741;BME280;29352;48.708;9.290;2022-10-19T02:39:22;98733.81;;;6.25;94.01
43741;BME280;29352;48.708;9.290;2022-10-19T02:41:53;98739.31;;;5.90;95.05
43741;BME280;29352;48.708;9.290;2022-10-19T02:44:30;98730.66;;;5.72;94.11
43741;BME280;29352;48.708;9.290;2022-10-19T02:47:14;98735.59;;;5.42;96.40
43741;BME280;29352;48.708;9.290;2022-10-19T02:49:45;98740.75;;;5.60;95.42
43741;BME280;29352;48.708;9.290;2022-10-19T02:52:13;98741.53;;;5.36;96.13
43741;BME280;29352;48.708;9.290;2022-10-19T02:54:42;98737.75;;;5.55;95.58
43741;BME280;29352;48.708;9.290;2022-10-19T02:57:17;98733.19;;;5.90;94.58
43741;BME280;29352;48.708;9.290;2022-10-19T02:59:43;98724.53;;;5.63;95.83
43741;BME280;29352;48.708;9.290;2022-10-19T03:02:09;98723.22;;;5.76;95.56
43741;BME280;29352;48.708;9.290;2022-10-19T03:04:34;98726.19;;;5.89;94.93
43741;BME280;29352;48.708;9.290;2022-10-19T03:07:00;98719.59;;;5.85;95.48
43741;BME280;29352;48.708;9.290;2022-10-19T03:09:26;98723.56;;;5.73;96.25
43741;BME280;29352;48.708;9.290;2022-10-19T03:11:51;98717.25;;;6.06;94.60
43741;BME280;29352;48.708;9.290;2022-10-19T03:14:16;98720.56;;;5.92;95.32
43741;BME280;29352;48.708;9.290;2022-10-19T03:16:42;98717.28;;;5.74;96.16
43741;BME280;29352;48.708;9.290;2022-10-19T03:19:07;98710.31;;;6.05;95.66
43741;BME280;29352;48.708;9.290;2022-10-19T03:21:33;98709.00;;;5.85;96.83
43741;BME280;29352;48.708;9.290;2022-10-19T03:23:59;98704.03;;;5.98;96.26
43741;BME280;29352;48.708;9.290;2022-10-19T03:26:25;98704.66;;;6.16;95.60
43741;BME280;29352;48.708;9.290;2022-10-19T03:28:51;98704.78;;;6.31;94.68
43741;BME280;29352;48.708;9.290;2022-10-19T03:31:17;98709.09;;;6.24;95.32
43741;BME280;29352;48.708;9.290;2022-10-19T03:33:44;98702.00;;;6.16;95.38
43741;BME280;29352;48.708;9.290;2022-10-19T03:36:15;98702.59;;;6.43;94.83
43741;BME280;29352;48.708;9.290;2022-10-19T03:38:43;98702.63;;;6.35;94.85
43741;BME280;29352;48.708;9.290;2022-10-19T03:41:10;98705.28;;;6.35;95.03
43741;BME280;29352;48.708;9.290;2022-10-19T03:43:36;98706.25;;;6.34;95.32
43741;BME280;29352;48.708;9.290;2022-10-19T03:46:01;98709.56;;;6.44;94.88
43741;BME280;29352;48.708;9.290;2022-10-19T03:48:27;98709.47;;;6.21;95.85
43741;BME280;29352;48.708;9.290;2022-10-19T03:53:26;98700.38;;;5.99;96.28
43741;BME280;29352;48.708;9.290;2022-10-19T03:55:52;98695.38;;;6.12;95.83
43741;BME280;29352;48.708;9.290;2022-10-19T03:58:17;98697.53;;;6.25;95.57
43741;BME280;29352;48.708;9.290;2022-10-19T04:00:43;98702.03;;;5.92;96.77
43741;BME280;29352;48.708;9.290;2022-10-19T04:03:08;98706.66;;;6.06;96.02
43741;BME280;29352;48.708;9.290;2022-10-19T04:05:33;98706.97;;;6.20;95.28
43741;BME280;29352;48.708;9.290;2022-10-19T04:07:59;98699.06;;;5.87;97.09
43741;BME280;29352;48.708;9.290;2022-10-19T04:10:24;98693.09;;;5.68;97.61
43741;BME280;29352;48.708;9.290;2022-10-19T04:12:49;98700.56;;;5.73;97.53
43741;BME280;29352;48.708;9.290;2022-10-19T04:15:15;98696.09;;;5.74;97.18
43741;BME280;29352;48.708;9.290;2022-10-19T04:17:40;98693.59;;;5.88;96.71
43741;BME280;29352;48.708;9.290;2022-10-19T04:20:06;98687.47;;;5.88;96.90
43741;BME280;29352;48.708;9.290;2022-10-19T04:22:32;98687.94;;;6.08;95.90
43741;BME280;29352;48.708;9.290;2022-10-19T04:24:57;98692.69;;;6.21;95.23
43741;BME280;29352;48.708;9.290;2022-10-19T04:27:22;98691.56;;;6.15;95.29
43741;BME280;29352;48.708;9.290;2022-10-19T04:29:48;98688.91;;;6.79;92.78
43741;BME280;29352;48.708;9.290;2022-10-19T04:32:13;98686.13;;;6.08;95.62
43741;BME280;29352;48.708;9.290;2022-10-19T04:34:38;98693.78;;;6.51;93.86
43741;BME280;29352;48.708;9.290;2022-10-19T04:37:04;98698.31;;;6.34;94.69
43741;BME280;29352;48.708;9.290;2022-10-19T04:39:29;98695.28;;;6.45;94.27
43741;BME280;29352;48.708;9.290;2022-10-19T04:41:55;98694.03;;;6.16;96.19
43741;BME280;29352;48.708;9.290;2022-10-19T04:44:20;98696.38;;;6.11;96.10
43741;BME280;29352;48.708;9.290;2022-10-19T04:46:46;98702.16;;;6.23;95.98
43741;BME280;29352;48.708;9.290;2022-10-19T04:49:11;98696.16;;;6.37;95.55
43741;BME280;29352;48.708;9.290;2022-10-19T04:51:37;98694.63;;;6.51;95.13
43741;BME280;29352;48.708;9.290;2022-10-19T04:54:03;98693.78;;;6.51;94.79
43741;BME280;29352;48.708;9.290;2022-10-19T04:56:29;98697.25;;;6.51;95.76
43741;BME280;29352;48.708;9.290;2022-10-19T04:58:57;98695.34;;;6.29;97.17
43741;BME280;29352;48.708;9.290;2022-10-19T05:01:26;98690.53;;;6.80;94.47
43741;BME280;29352;48.708;9.290;2022-10-19T05:03:55;98692.38;;;6.32;96.38
43741;BME280;29352;48.708;9.290;2022-10-19T05:06:22;98692.28;;;6.48;95.76
43741;BME280;29352;48.708;9.290;2022-10-19T05:08:49;98691.75;;;6.77;94.60
43741;BME280;29352;48.708;9.290;2022-10-19T05:11:16;98695.81;;;6.40;95.30
43741;BME280;29352;48.708;9.290;2022-10-19T05:13:42;98693.59;;;6.60;95.97
43741;BME280;29352;48.708;9.290;2022-10-19T05:16:14;98689.00;;;6.94;93.65
43741;BME280;29352;48.708;9.290;2022-10-19T05:18:46;98697.78;;;6.47;95.35
43741;BME280;29352;48.708;9.290;2022-10-19T05:21:17;98690.03;;;6.37;96.66
43741;BME280;29352;48.708;9.290;2022-10-19T05:23:43;98692.44;;;6.63;95.23
43741;BME280;29352;48.708;9.290;2022-10-19T05:26:15;98689.16;;;6.45;95.62
43741;BME280;29352;48.708;9.290;2022-10-19T05:28:46;98693.50;;;6.46;95.89
43741;BME280;29352;48.708;9.290;2022-10-19T05:31:22;98701.00;;;6.09;96.68
43741;BME280;29352;48.708;9.290;2022-10-19T05:33:48;98693.56;;;6.05;97.34
43741;BME280;29352;48.708;9.290;2022-10-19T05:36:21;98683.09;;;6.20;97.29
43741;BME280;29352;48.708;9.290;2022-10-19T05:38:53;98690.91;;;6.13;96.90
43741;BME280;29352;48.708;9.290;2022-10-19T05:41:21;98687.13;;;5.75;98.48
43741;BME280;29352;48.708;9.290;2022-10-19T05:43:53;98689.34;;;6.43;95.89
43741;BME280;29352;48.708;9.290;2022-10-19T05:46:19;98690.78;;;5.90;96.80
43741;BME280;29352;48.708;9.290;2022-10-19T05:48:46;98691.06;;;5.54;99.50
43741;BME280;29352;48.708;9.290;2022-10-19T05:51:15;98693.06;;;5.93;98.21
43741;BME280;29352;48.708;9.290;2022-10-19T05:53:43;98688.22;;;6.29;95.81
43741;BME280;29352;48.708;9.290;2022-10-19T05:56:16;98692.00;;;6.43;95.68
43741;BME280;29352;48.708;9.290;2022-10-19T05:58:44;98690.75;;;6.06;96.49
43741;BME280;29352;48.708;9.290;2022-10-19T06:01:10;98690.88;;;6.29;96.41
43741;BME280;29352;48.708;9.290;2022-10-19T06:03:36;98694.44;;;5.73;98.74
43741;BME280;29352;48.708;9.290;2022-10-19T06:06:03;98699.03;;;6.03;97.28
43741;BME280;29352;48.708;9.290;2022-10-19T06:08:30;98699.50;;;5.58;99.44
43741;BME280;29352;48.708;9.290;2022-10-19T06:11:11;98697.38;;;5.86;98.37
43741;BME280;29352;48.708;9.290;2022-10-19T06:13:40;98708.66;;;5.72;99.56
43741;BME280;29352;48.708;9.290;2022-10-19T06:16:08;98699.19;;;5.61;100.00
43741;BME280;29352;48.708;9.290;2022-10-19T06:18:35;98700.34;;;5.58;100.00
43741;BME280;29352;48.708;9.290;2022-10-19T06:21:07;98706.31;;;5.60;100.00
43741;BME280;29352;48.708;9.290;2022-10-19T06:23:35;98699.03;;;5.54;99.98
43741;BME280;29352;48.708;9.290;2022-10-19T06:26:04;98697.38;;;5.61;99.81
43741;BME280;29352;48.708;9.290;2022-10-19T06:28:31;98695.91;;;5.67;100.00
43741;BME280;29352;48.708;9.290;2022-10-19T06:30:58;98708.34;;;6.63;94.72
43741;BME280;29352;48.708;9.290;2022-10-19T06:33:27;98702.19;;;6.15;97.14
43741;BME280;29352;48.708;9.290;2022-10-19T06:35:54;98713.47;;;5.76;99.97
43741;BME280;29352;48.708;9.290;2022-10-19T06:38:20;98712.13;;;5.88;99.66
43741;BME280;29352;48.708;9.290;2022-10-19T06:40:45;98717.88;;;6.33;96.98
43741;BME280;29352;48.708;9.290;2022-10-19T06:43:13;98714.63;;;5.74;99.36
43741;BME280;29352;48.708;9.290;2022-10-19T06:45:39;98721.41;;;6.01;99.65
43741;BME280;29352;48.708;9.290;2022-10-19T06:48:05;98718.22;;;6.30;97.86
43741;BME280;29352;48.708;9.290;2022-10-19T06:50:31;98719.75;;;6.72;94.84
43741;BME280;29352;48.708;9.290;2022-10-19T06:52:58;98723.06;;;6.82;94.47
43741;BME280;29352;48.708;9.290;2022-10-19T06:55:24;98723.16;;;6.41;97.34
43741;BME280;29352;48.708;9.290;2022-10-19T06:57:50;98723.16;;;6.49;96.88
43741;BME280;29352;48.708;9.290;2022-10-19T07:00:15;98726.84;;;6.15;96.99
43741;BME280;29352;48.708;9.290;2022-10-19T07:02:41;98719.53;;;6.42;96.88
43741;BME280;29352;48.708;9.290;2022-10-19T07:05:07;98721.19;;;6.91;94.38
43741;BME280;29352;48.708;9.290;2022-10-19T07:07:34;98719.09;;;7.40;91.37
43741;BME280;29352;48.708;9.290;2022-10-19T07:10:00;98716.81;;;7.06;91.31
43741;BME280;29352;48.708;9.290;2022-10-19T07:12:25;98721.69;;;6.94;93.76
43741;BME280;29352;48.708;9.290;2022-10-19T07:14:51;98726.72;;;6.64;96.29
43741;BME280;29352;48.708;9.290;2022-10-19T07:17:16;98725.75;;;6.57;96.80
43741;BME280;29352;48.708;9.290;2022-10-19T07:19:41;98724.75;;;6.75;96.55
43741;BME280;29352;48.708;9.290;2022-10-19T07:22:07;98724.03;;;6.73;96.58
43741;BME280;29352;48.708;9.290;2022-10-19T07:24:32;98722.09;;;6.75;96.81
43741;BME280;29352;48.708;9.290;2022-10-19T07:26:58;98729.41;;;6.56;96.10
43741;BME280;29352;48.708;9.290;2022-10-19T07:29:23;98726.81;;;6.40;96.35
43741;BME280;29352;48.708;9.290;2022-10-19T07:31:49;98729.78;;;6.37;97.45
43741;BME280;29352;48.708;9.290;2022-10-19T07:34:14;98723.63;;;6.53;96.60
43741;BME280;29352;48.708;9.290;2022-10-19T07:36:44;98722.50;;;6.95;94.15
43741;BME280;29352;48.708;9.290;2022-10-19T07:39:12;98727.28;;;6.99;93.77
43741;BME280;29352;48.708;9.290;2022-10-19T07:41:41;98720.25;;;7.38;92.79
43741;BME280;29352;48.708;9.290;2022-10-19T07:44:07;98713.25;;;7.22;93.66
43741;BME280;29352;48.708;9.290;2022-10-19T07:46:33;98721.81;;;6.45;95.78
43741;BME280;29352;48.708;9.290;2022-10-19T07:49:02;98720.81;;;6.94;93.58
43741;BME280;29352;48.708;9.290;2022-10-19T07:51:30;98722.22;;;6.81;94.03
43741;BME280;29352;48.708;9.290;2022-10-19T07:53:57;98721.56;;;7.10;92.81
43741;BME280;29352;48.708;9.290;2022-10-19T07:56:25;98725.22;;;7.41;92.02
43741;BME280;29352;48.708;9.290;2022-10-19T07:58:54;98717.63;;;7.83;89.23
43741;BME280;29352;48.708;9.290;2022-10-19T08:01:24;98727.22;;;7.07;92.71
43741;BME280;29352;48.708;9.290;2022-10-19T08:03:56;98730.06;;;6.67;95.79
43741;BME280;29352;48.708;9.290;2022-10-19T08:06:24;98723.50;;;7.25;92.79
43741;BME280;29352;48.708;9.290;2022-10-19T08:08:51;98714.16;;;7.60;92.32
43741;BME280;29352;48.708;9.290;2022-10-19T08:11:21;98722.91;;;7.15;93.68
43741;BME280;29352;48.708;9.290;2022-10-19T08:13:48;98721.06;;;7.46;91.89
43741;BME280;29352;48.708;9.290;2022-10-19T08:16:27;98724.22;;;7.65;92.18
43741;BME280;29352;48.708;9.290;2022-10-19T08:19:04;98714.75;;;7.70;92.28
43741;BME280;29352;48.708;9.290;2022-10-19T08:21:34;98720.91;;;7.63;91.55
43741;BME280;29352;48.708;9.290;2022-10-19T08:24:00;98719.38;;;7.68;91.57
43741;BME280;29352;48.708;9.290;2022-10-19T08:26:31;98712.44;;;7.67;92.07
43741;BME280;29352;48.708;9.290;2022-10-19T08:29:02;98709.13;;;7.65;91.58
43741;BME280;29352;48.708;9.290;2022-10-19T08:31:29;98710.41;;;7.69;90.60
43741;BME280;29352;48.708;9.290;2022-10-19T08:33:55;98709.53;;;8.15;89.59
43741;BME280;29352;48.708;9.290;2022-10-19T08:36:21;98709.47;;;8.23;89.57
43741;BME280;29352;48.708;9.290;2022-10-19T08:38:48;98708.19;;;8.19;89.63
43741;BME280;29352;48.708;9.290;2022-10-19T08:49:45;98706.53;;;8.62;86.94
43741;BME280;29352;48.708;9.290;2022-10-19T08:52:18;98712.97;;;8.53;87.52
43741;BME280;29352;48.708;9.290;2022-10-19T08:54:56;98711.69;;;8.64;86.73
43741;BME280;29352;48.708;9.290;2022-10-19T09:00:19;98716.63;;;8.37;86.61
43741;BME280;29352;48.708;9.290;2022-10-19T09:03:22;98712.06;;;7.93;88.99
43741;BME280;29352;48.708;9.290;2022-10-19T09:06:25;98706.72;;;8.31;87.30
43741;BME280;29352;48.708;9.290;2022-10-19T09:08:55;98706.44;;;8.56;86.89
43741;BME280;29352;48.708;9.290;2022-10-19T09:11:26;98702.88;;;8.48;88.01
43741;BME280;29352;48.708;9.290;2022-10-19T09:14:04;98699.59;;;8.46;88.48
43741;BME280;29352;48.708;9.290;2022-10-19T09:16:46;98706.09;;;8.59;89.07
43741;BME280;29352;48.708;9.290;2022-10-19T09:19:24;98691.28;;;9.00;84.08
43741;BME280;29352;48.708;9.290;2022-10-19T09:21:57;98697.09;;;7.77;90.86
43741;BME280;29352;48.708;9.290;2022-10-19T09:24:31;98696.53;;;8.20;89.03
43741;BME280;29352;48.708;9.290;2022-10-19T09:27:20;98690.03;;;8.37;88.01
43741;BME280;29352;48.708;9.290;2022-10-19T09:29:56;98690.50;;;8.56;87.28
43741;BME280;29352;48.708;9.290;2022-10-19T09:32:34;98686.56;;;8.81;86.41
43741;BME280;29352;48.708;9.290;2022-10-19T09:38:00;98686.56;;;9.75;81.99
43741;BME280;29352;48.708;9.290;2022-10-19T09:40:30;98691.91;;;8.81;85.28
43741;BME280;29352;48.708;9.290;2022-10-19T09:42:56;98694.53;;;8.51;84.93
43741;BME280;29352;48.708;9.290;2022-10-19T09:48:50;98692.97;;;8.57;84.67
43741;BME280;29352;48.708;9.290;2022-10-19T09:51:18;98691.63;;;8.46;85.91
43741;BME280;29352;48.708;9.290;2022-10-19T09:53:53;98690.22;;;8.95;83.56
43741;BME280;29352;48.708;9.290;2022-10-19T09:56:25;98684.47;;;9.13;83.64
43741;BME280;29352;48.708;9.290;2022-10-19T09:58:57;98690.69;;;9.20;83.86
43741;BME280;29352;48.708;9.290;2022-10-19T10:01:32;98688.47;;;10.09;78.55
43741;BME280;29352;48.708;9.290;2022-10-19T10:04:15;98683.16;;;9.45;80.92
43741;BME280;29352;48.708;9.290;2022-10-19T10:06:43;98679.16;;;9.56;80.85
43741;BME280;29352;48.708;9.290;2022-10-19T10:09:17;98685.88;;;9.52;81.17
43741;BME280;29352;48.708;9.290;2022-10-19T10:11:50;98679.25;;;9.05;82.09
43741;BME280;29352;48.708;9.290;2022-10-19T10:14:29;98680.34;;;9.32;82.11
43741;BME280;29352;48.708;9.290;2022-10-19T10:17:06;98673.59;;;9.51;81.16
43741;BME280;29352;48.708;9.290;2022-10-19T10:22:31;98671.09;;;10.20;79.19
43741;BME280;29352;48.708;9.290;2022-10-19T10:24:59;98670.69;;;9.95;78.96
43741;BME280;29352;48.708;9.290;2022-10-19T10:27:34;98668.78;;;9.61;81.22
43741;BME280;29352;48.708;9.290;2022-10-19T10:30:16;98672.56;;;9.73;80.69
43741;BME280;29352;48.708;9.290;2022-10-19T10:32:52;98666.59;;;9.49;82.20
43741;BME280;29352;48.708;9.290;2022-10-19T10:35:24;98671.50;;;9.89;80.39
43741;BME280;29352;48.708;9.290;2022-10-19T10:38:16;98660.69;;;9.33;81.78
43741;BME280;29352;48.708;9.290;2022-10-19T10:40:55;98652.78;;;9.61;81.19
43741;BME280;29352;48.708;9.290;2022-10-19T10:43:39;98656.31;;;9.89;79.83
43741;BME280;29352;48.708;9.290;2022-10-19T10:46:23;98652.25;;;10.28;78.16
43741;BME280;29352;48.708;9.290;2022-10-19T10:48:59;98650.81;;;9.69;79.69
43741;BME280;29352;48.708;9.290;2022-10-19T10:54:22;98639.06;;;9.42;80.32
43741;BME280;29352;48.708;9.290;2022-10-19T10:57:09;98649.84;;;10.05;80.61
43741;BME280;29352;48.708;9.290;2022-10-19T11:10:34;98635.00;;;10.59;79.08
43741;BME280;29352;48.708;9.290;2022-10-19T11:15:59;98625.28;;;11.06;76.10
43741;BME280;29352;48.708;9.290;2022-10-19T11:18:40;98623.31;;;10.66;76.76
43741;BME280;29352;48.708;9.290;2022-10-19T11:21:36;98620.19;;;10.22;77.77
43741;BME280;29352;48.708;9.290;2022-10-19T11:27:13;98608.53;;;10.64;76.88
43741;BME280;29352;48.708;9.290;2022-10-19T11:30:17;98596.03;;;10.78;75.96
43741;BME280;29352;48.708;9.290;2022-10-19T11:35:44;98603.28;;;9.73;79.35
43741;BME280;29352;48.708;9.290;2022-10-19T11:44:18;98580.59;;;10.60;76.80
43741;BME280;29352;48.708;9.290;2022-10-19T11:50:26;98562.16;;;10.72;76.53
43741;BME280;29352;48.708;9.290;2022-10-19T11:56:11;98558.91;;;10.35;76.95
43741;BME280;29352;48.708;9.290;2022-10-19T12:04:59;98551.81;;;10.07;77.52
43741;BME280;29352;48.708;9.290;2022-10-19T12:14:03;98545.47;;;10.56;77.24
43741;BME280;29352;48.708;9.290;2022-10-19T12:16:40;98539.31;;;10.56;76.70
43741;BME280;29352;48.708;9.290;2022-10-19T12:19:38;98536.91;;;10.81;75.61
43741;BME280;29352;48.708;9.290;2022-10-19T12:22:16;98538.16;;;10.78;75.58
43741;BME280;29352;48.708;9.290;2022-10-19T12:24:46;98532.38;;;10.68;75.87
43741;BME280;29352;48.708;9.290;2022-10-19T12:27:15;98522.91;;;10.65;75.16
43741;BME280;29352;48.708;9.290;2022-10-19T12:29:49;98525.63;;;10.99;75.14
43741;BME280;29352;48.708;9.290;2022-10-19T12:32:19;98516.78;;;10.72;75.34
43741;BME280;29352;48.708;9.290;2022-10-19T12:37:48;98521.13;;;10.86;74.75
43741;BME280;29352;48.708;9.290;2022-10-19T12:40:42;98523.53;;;10.74;75.07
43741;BME280;29352;48.708;9.290;2022-10-19T12:43:34;98524.00;;;10.23;77.30
43741;BME280;29352;48.708;9.290;2022-10-19T12:46:34;98518.44;;;10.86;75.07
43741;BME280;29352;48.708;9.290;2022-10-19T12:51:54;98515.19;;;11.10;74.46
43741;BME280;29352;48.708;9.290;2022-10-19T12:54:23;98510.84;;;11.29;72.76
43741;BME280;29352;48.708;9.290;2022-10-19T12:56:53;98505.31;;;11.24;73.69
43741;BME280;29352;48.708;9.290;2022-10-19T13:01:57;98507.75;;;11.06;73.37
43741;BME280;29352;48.708;9.290;2022-10-19T13:04:34;98495.84;;;11.62;71.41
43741;BME280;29352;48.708;9.290;2022-10-19T13:07:06;98496.88;;;11.21;72.85
43741;BME280;29352;48.708;9.290;2022-10-19T13:09:44;98493.41;;;11.20;72.50
43741;BME280;29352;48.708;9.290;2022-10-19T13:25:30;98478.81;;;11.36;72.73
43741;BME280;29352;48.708;9.290;2022-10-19T13:36:06;98452.28;;;10.95;73.44
43741;BME280;29352;48.708;9.290;2022-10-19T13:41:26;98468.53;;;11.00;72.72
43741;BME280;29352;48.708;9.290;2022-10-19T13:56:04;98445.31;;;11.20;72.96
43741;BME280;29352;48.708;9.290;2022-10-19T14:05:32;98435.28;;;10.01;75.71
43741;BME280;29352;48.708;9.290;2022-10-19T14:11:30;98437.50;;;10.59;74.46
43741;BME280;29352;48.708;9.290;2022-10-19T14:14:11;98424.91;;;10.46;74.16
43741;BME280;29352;48.708;9.290;2022-10-19T14:16:55;98414.19;;;10.06;76.62
43741;BME280;29352;48.708;9.290;2022-10-19T14:19:32;98429.81;;;9.68;75.88
43741;BME280;29352;48.708;9.290;2022-10-19T14:22:27;98423.13;;;9.51;77.25
43741;BME280;29352;48.708;9.290;2022-10-19T14:25:12;98415.75;;;10.75;72.91
43741;BME280;29352;48.708;9.290;2022-10-19T14:27:42;98411.97;;;9.34;78.15
43741;BME280;29352;48.708;9.290;2022-10-19T14:30:30;98418.97;;;9.41;77.48
43741;BME280;29352;48.708;9.290;2022-10-19T14:33:01;98408.97;;;8.87;79.68
43741;BME280;29352;48.708;9.290;2022-10-19T14:35:35;98403.50;;;9.58;78.27
43741;BME280;29352;48.708;9.290;2022-10-19T14:38:08;98402.66;;;8.88;78.48
43741;BME280;29352;48.708;9.290;2022-10-19T14:40:43;98399.13;;;8.38;80.31
43741;BME280;29352;48.708;9.290;2022-10-19T14:43:24;98397.63;;;8.72;79.07
43741;BME280;29352;48.708;9.290;2022-10-19T14:46:28;98394.03;;;9.56;76.80
43741;BME280;29352;48.708;9.290;2022-10-19T14:49:00;98406.28;;;8.81;79.31
43741;BME280;29352;48.708;9.290;2022-10-19T14:51:54;98404.63;;;9.08;78.37
43741;BME280;29352;48.708;9.290;2022-10-19T14:54:33;98398.97;;;9.17;77.86
43741;BME280;29352;48.708;9.290;2022-10-19T14:59:40;98395.59;;;8.74;79.28
43741;BME280;29352;48.708;9.290;2022-10-19T15:02:47;98389.00;;;9.26;77.20
43741;BME280;29352;48.708;9.290;2022-10-19T15:05:21;98401.47;;;9.25;78.47
43741;BME280;29352;48.708;9.290;2022-10-19T15:07:51;98386.75;;;9.30;77.83
43741;BME280;29352;48.708;9.290;2022-10-19T15:10:25;98396.41;;;9.03;78.93
43741;BME280;29352;48.708;9.290;2022-10-19T15:13:05;98385.69;;;9.24;78.77
43741;BME280;29352;48.708;9.290;2022-10-19T15:15:34;98376.19;;;9.98;76.19
43741;BME280;29352;48.708;9.290;2022-10-19T15:20:31;98370.22;;;9.82;76.55
43741;BME280;29352;48.708;9.290;2022-10-19T15:24:15;98380.13;;;9.54;76.84
43741;BME280;29352;48.708;9.290;2022-10-19T15:28:50;98383.50;;;8.99;79.59
43741;BME280;29352;48.708;9.290;2022-10-19T15:31:26;98381.59;;;9.28;78.43
43741;BME280;29352;48.708;9.290;2022-10-19T15:33:56;98379.16;;;9.27;78.29
43741;BME280;29352;48.708;9.290;2022-10-19T15:36:24;98379.03;;;9.41;78.01
43741;BME280;29352;48.708;9.290;2022-10-19T15:39:02;98378.00;;;9.42;78.17
43741;BME280;29352;48.708;9.290;2022-10-19T15:41:35;98372.94;;;9.13;78.39
43741;BME280;29352;48.708;9.290;2022-10-19T15:44:04;98376.84;;;9.17;78.46
43741;BME280;29352;48.708;9.290;2022-10-19T15:51:45;98365.69;;;9.00;80.03
43741;BME280;29352;48.708;9.290;2022-10-19T15:54:14;98365.41;;;8.88;79.58
43741;BME280;29352;48.708;9.290;2022-10-19T15:56:46;98365.06;;;9.05;79.01
43741;BME280;29352;48.708;9.290;2022-10-19T15:59:18;98362.25;;;9.06;79.17
43741;BME280;29352;48.708;9.290;2022-10-19T16:01:46;98361.22;;;9.07;79.42
43741;BME280;29352;48.708;9.290;2022-10-19T16:04:14;98359.66;;;8.85;79.94
43741;BME280;29352;48.708;9.290;2022-10-19T16:06:41;98358.66;;;8.92;79.85
43741;BME280;29352;48.708;9.290;2022-10-19T16:09:18;98362.34;;;8.70;80.27
43741;BME280;29352;48.708;9.290;2022-10-19T16:11:47;98349.56;;;9.15;79.02
43741;BME280;29352;48.708;9.290;2022-10-19T16:14:13;98346.94;;;8.87;79.22
43741;BME280;29352;48.708;9.290;2022-10-19T16:16:39;98352.56;;;8.70;80.38